createdAt,value
2024-01-06T00:03:27.420Z,2.10
2024-01-06T00:07:29.556Z,1.50
2024-01-06T00:11:31.283Z,1.57
2024-01-06T00:15:33.072Z,1.88
2024-01-06T00:19:34.958Z,1.60
2024-01-06T00:23:36.768Z,1.33
2024-01-06T00:27:38.870Z,1.37
2024-01-06T00:31:40.744Z,1.60
2024-01-06T00:35:42.552Z,1.58
2024-01-06T00:39:44.487Z,2.47
2024-01-06T00:43:46.422Z,2.13
2024-01-06T00:47:48.337Z,1.92
2024-01-06T00:51:50.229Z,2.00
2024-01-06T00:55:51.971Z,2.03
2024-01-06T00:59:53.730Z,1.75
2024-01-06T01:03:55.564Z,1.88
2024-01-06T01:07:57.346Z,1.52
2024-01-06T01:11:59.103Z,2.20
2024-01-06T01:16:00.804Z,2.20
2024-01-06T01:20:02.711Z,2.40
2024-01-06T01:24:04.857Z,2.03
2024-01-06T01:28:06.676Z,2.33
2024-01-06T01:32:08.673Z,2.10
2024-01-06T01:36:10.509Z,2.23
2024-01-06T01:40:12.521Z,2.65
2024-01-06T01:44:14.248Z,2.35
2024-01-06T01:48:16.394Z,2.03
2024-01-06T01:52:18.289Z,2.05
2024-01-06T01:56:20.965Z,2.10
2024-01-06T02:00:24.173Z,2.00
2024-01-06T02:04:27.680Z,2.38
2024-01-06T02:08:29.575Z,2.05
2024-01-06T02:12:31.358Z,1.95
2024-01-06T02:16:33.055Z,1.70
2024-01-06T02:20:35.407Z,1.90
2024-01-06T02:24:37.166Z,2.58
2024-01-06T02:28:38.859Z,2.28
2024-01-06T02:32:40.600Z,1.77
2024-01-06T02:36:42.371Z,1.90
2024-01-06T02:40:44.197Z,2.00
2024-01-06T02:44:45.954Z,1.95
2024-01-06T02:48:47.794Z,2.03
2024-01-06T02:52:49.722Z,2.10
2024-01-06T02:56:51.412Z,1.98
2024-01-06T03:00:53.225Z,2.15
2024-01-06T03:04:55.835Z,1.80
2024-01-06T03:08:57.495Z,2.00
2024-01-06T03:12:59.388Z,1.65
2024-01-06T03:17:01.176Z,1.38
2024-01-06T03:21:02.966Z,1.60
2024-01-06T03:25:05.437Z,1.73
2024-01-06T03:29:07.499Z,2.42
2024-01-06T03:33:09.319Z,1.93
2024-01-06T03:37:11.134Z,1.92
2024-01-06T03:41:12.828Z,2.20
2024-01-06T03:45:14.894Z,2.30
2024-01-06T03:49:19.907Z,1.93
2024-01-06T03:53:24.511Z,2.17
2024-01-06T03:57:27.056Z,2.20
2024-01-06T04:01:30.199Z,2.20
2024-01-06T04:05:31.989Z,1.75
2024-01-06T04:09:33.772Z,2.05
2024-01-06T04:13:35.618Z,1.80
2024-01-06T04:17:37.422Z,2.05
2024-01-06T04:21:39.164Z,1.90
2024-01-06T04:25:40.994Z,2.05
2024-01-06T04:29:42.686Z,1.80
2024-01-06T04:33:44.614Z,2.10
2024-01-06T04:37:46.470Z,2.53
2024-01-06T04:41:48.175Z,1.95
2024-01-06T04:45:51.501Z,1.98
2024-01-06T04:49:53.344Z,2.38
2024-01-06T04:53:55.137Z,2.13
2024-01-06T04:57:56.963Z,2.00
2024-01-06T05:01:59.544Z,2.10
2024-01-06T05:06:01.223Z,1.80
2024-01-06T05:10:03.429Z,2.50
2024-01-06T05:14:05.110Z,2.00
2024-01-06T05:18:07.176Z,1.95
2024-01-06T05:22:09.114Z,1.93
2024-01-06T05:26:10.866Z,2.38
2024-01-06T05:30:12.839Z,1.98
2024-01-06T05:34:15.007Z,1.37
2024-01-06T05:38:18.388Z,2.35
2024-01-06T05:42:20.155Z,2.47
2024-01-06T05:46:23.387Z,2.40
2024-01-06T05:50:25.073Z,2.35
2024-01-06T05:54:27.217Z,2.55
2024-01-06T05:58:28.970Z,2.27
2024-01-06T06:02:31.535Z,1.90
2024-01-06T06:06:34.266Z,2.30
2024-01-06T06:14:44.565Z,2.28
2024-01-06T06:18:46.555Z,2.67
2024-01-06T06:22:49.384Z,2.27
2024-01-06T06:26:51.158Z,2.58
2024-01-06T06:30:52.956Z,2.38
2024-01-06T06:34:54.704Z,1.77
2024-01-06T06:38:59.198Z,2.72
2024-01-06T06:43:00.974Z,2.28
2024-01-06T06:47:02.771Z,2.35
2024-01-06T06:51:04.765Z,2.65
2024-01-06T06:55:06.639Z,2.43
2024-01-06T06:59:08.464Z,2.45
2024-01-06T07:03:10.203Z,2.83
2024-01-06T07:07:11.934Z,3.03
2024-01-06T07:11:16.404Z,2.88
2024-01-06T07:15:18.208Z,3.33
2024-01-06T07:19:20.037Z,2.95
2024-01-06T07:23:21.812Z,2.33
2024-01-06T07:27:23.559Z,2.85
2024-01-06T07:31:34.624Z,2.28
2024-01-06T07:35:36.402Z,3.13
2024-01-06T07:39:38.189Z,2.70
2024-01-06T07:43:39.883Z,3.70
2024-01-06T07:47:41.685Z,2.97
2024-01-06T07:51:43.465Z,3.10
2024-01-06T07:55:45.142Z,3.22
2024-01-06T07:59:46.993Z,3.28
2024-01-06T08:03:48.767Z,3.15
2024-01-06T08:07:52.365Z,2.80
2024-01-06T08:11:54.597Z,3.13
2024-01-06T08:15:56.439Z,3.00
2024-01-06T08:19:58.318Z,2.83
2024-01-06T08:24:00.156Z,3.42
2024-01-06T08:28:01.976Z,3.13
2024-01-06T08:32:04.186Z,3.73
2024-01-06T08:36:06.808Z,3.77
2024-01-06T08:40:09.380Z,3.47
2024-01-06T08:44:11.163Z,3.63
2024-01-06T08:48:15.065Z,3.50
2024-01-06T08:52:17.012Z,3.33
2024-01-06T08:56:19.133Z,4.05
2024-01-06T09:00:21.037Z,4.30
2024-01-06T09:04:22.830Z,3.80
2024-01-06T09:08:25.489Z,3.78
2024-01-06T09:16:29.378Z,4.50
2024-01-06T09:20:31.426Z,3.83
2024-01-06T09:24:34.890Z,4.77
2024-01-06T09:28:36.809Z,5.18
2024-01-06T09:32:38.677Z,4.22
2024-01-06T09:36:40.462Z,4.43
2024-01-06T09:40:45.786Z,4.40
2024-01-06T09:44:47.770Z,3.70
2024-01-06T09:48:52.748Z,3.10
2024-01-06T09:53:05.218Z,4.53
2024-01-06T09:57:07.502Z,4.10
2024-01-06T10:01:10.225Z,5.03
2024-01-06T10:13:19.195Z,4.03
2024-01-06T10:17:21.011Z,4.63
2024-01-06T10:21:23.834Z,4.53
2024-01-06T10:25:26.436Z,5.20
2024-01-06T10:29:28.543Z,5.40
2024-01-06T10:33:30.575Z,5.50
2024-01-06T10:37:32.353Z,5.87
2024-01-06T10:41:35.806Z,5.00
2024-01-06T10:45:38.019Z,5.57
2024-01-06T10:49:40.912Z,4.97
2024-01-06T10:57:46.392Z,4.30
2024-01-06T11:01:48.710Z,4.38
2024-01-06T11:05:51.368Z,5.00
2024-01-06T11:10:03.949Z,4.32
2024-01-06T11:14:25.965Z,4.65
2024-01-06T11:18:42.293Z,4.63
2024-01-06T11:22:47.036Z,5.15
2024-01-06T11:26:53.549Z,4.93
2024-01-06T11:31:10.836Z,5.18
2024-01-06T11:35:14.485Z,5.68
2024-01-06T11:39:41.765Z,5.15
2024-01-06T11:43:43.979Z,5.55
2024-01-06T11:47:50.279Z,4.82
2024-01-06T11:51:52.216Z,4.82
2024-01-06T11:55:53.996Z,5.43
2024-01-06T11:59:56.042Z,4.28
2024-01-06T12:03:58.939Z,4.90
2024-01-06T12:08:08.999Z,4.93
2024-01-06T12:12:11.896Z,4.78
2024-01-06T12:16:13.615Z,4.55
2024-01-06T12:20:15.692Z,4.78
2024-01-06T12:24:19.606Z,4.87
2024-01-06T12:28:21.619Z,4.95
2024-01-06T12:32:23.527Z,4.63
2024-01-06T12:36:27.442Z,5.03
2024-01-06T12:40:29.450Z,5.10
2024-01-06T12:44:33.652Z,5.15
2024-01-06T12:48:35.524Z,4.97
2024-01-06T12:52:39.368Z,4.37
2024-01-06T12:56:41.713Z,5.45
2024-01-06T13:00:43.577Z,4.32
2024-01-06T13:04:45.441Z,5.20
2024-01-06T13:08:47.386Z,4.85
2024-01-06T13:12:52.100Z,5.53
2024-01-06T13:16:55.307Z,5.03
2024-01-06T13:20:57.120Z,5.60
2024-01-06T13:25:00.472Z,5.90
2024-01-06T13:29:03.006Z,5.20
2024-01-06T13:33:05.447Z,6.25
2024-01-06T13:37:09.070Z,5.60
2024-01-06T13:41:10.973Z,6.03
2024-01-06T13:45:13.814Z,6.25
2024-01-06T13:53:17.557Z,6.47
2024-01-06T13:57:19.301Z,6.30
2024-01-06T14:01:21.720Z,6.10
2024-01-06T14:05:23.914Z,6.30
2024-01-06T14:09:26.162Z,6.07
2024-01-06T14:13:29.201Z,5.70
2024-01-06T14:17:32.025Z,6.15
2024-01-06T14:21:33.860Z,5.30
2024-01-06T14:25:35.625Z,5.55
2024-01-06T14:29:37.576Z,5.20
2024-01-06T14:33:39.375Z,5.37
2024-01-06T14:37:41.225Z,5.47
2024-01-06T14:41:43.162Z,6.38
2024-01-06T14:45:45.038Z,5.88
2024-01-06T14:49:46.812Z,5.70
2024-01-06T14:53:48.576Z,5.93
2024-01-06T14:57:50.390Z,6.72
2024-01-06T15:01:52.152Z,5.85
2024-01-06T15:05:53.905Z,6.72
2024-01-06T15:09:55.638Z,5.45
2024-01-06T15:13:57.405Z,6.35
2024-01-06T15:17:59.549Z,6.10
2024-01-06T15:22:01.548Z,6.43
2024-01-06T15:26:05.115Z,5.40
2024-01-06T15:30:10.582Z,7.90
2024-01-06T15:34:12.559Z,7.20
2024-01-06T15:38:14.439Z,8.13
2024-01-06T15:42:16.239Z,8.00
2024-01-06T15:46:18.598Z,8.30
2024-01-06T15:50:20.358Z,8.00
2024-01-06T15:54:24.163Z,8.90
2024-01-06T15:58:26.069Z,8.98
2024-01-06T16:02:28.880Z,9.18
2024-01-06T16:10:38.015Z,7.15
2024-01-06T16:14:39.795Z,7.15
2024-01-06T16:18:41.752Z,7.57
2024-01-06T16:22:43.539Z,7.90
2024-01-06T16:26:46.482Z,8.88
2024-01-06T16:30:48.311Z,8.45
2024-01-06T16:34:50.302Z,16.03
2024-01-06T16:38:52.188Z,9.53
2024-01-06T16:42:53.949Z,8.25
2024-01-06T16:46:58.434Z,10.80
2024-01-06T16:51:00.192Z,8.07
2024-01-06T16:55:02.248Z,8.32
2024-01-06T16:59:04.031Z,7.13
2024-01-06T17:03:06.078Z,6.50
2024-01-06T17:07:08.007Z,5.63
2024-01-06T17:11:09.833Z,6.57
2024-01-06T17:15:11.720Z,7.28
2024-01-06T17:19:13.587Z,6.50
2024-01-06T17:23:15.439Z,6.47
2024-01-06T17:27:17.145Z,8.43
2024-01-06T17:31:19.235Z,8.38
2024-01-06T17:35:21.144Z,7.32
2024-01-06T17:39:22.869Z,8.20
2024-01-06T17:43:24.607Z,7.28
2024-01-06T17:47:26.379Z,7.68
2024-01-06T17:51:30.588Z,7.38
2024-01-06T17:55:32.720Z,6.70
2024-01-06T17:59:34.441Z,6.80
2024-01-06T18:03:36.248Z,6.80
2024-01-06T18:07:38.109Z,6.95
2024-01-06T18:11:42.670Z,7.18
2024-01-06T18:15:44.462Z,6.78
2024-01-06T18:19:46.280Z,8.43
2024-01-06T18:23:48.137Z,10.07
2024-01-06T18:27:50.004Z,10.65
2024-01-06T18:31:52.557Z,8.85
2024-01-06T18:35:54.406Z,8.50
2024-01-06T18:39:56.165Z,7.82
2024-01-06T18:43:58.003Z,7.90
2024-01-06T18:47:59.987Z,10.63
2024-01-06T18:52:02.820Z,9.93
2024-01-06T18:56:04.845Z,10.57
2024-01-06T19:00:09.278Z,9.93
2024-01-06T19:04:11.377Z,8.38
2024-01-06T19:08:13.306Z,8.57
2024-01-06T19:12:15.862Z,8.93
2024-01-06T19:16:17.599Z,8.98
2024-01-06T19:20:20.085Z,10.05
2024-01-06T19:24:28.306Z,9.95
2024-01-06T19:28:37.639Z,9.40
2024-01-06T19:32:40.069Z,10.35
2024-01-06T19:36:41.962Z,10.13
2024-01-06T19:40:43.851Z,10.75
2024-01-06T19:44:45.840Z,10.98
2024-01-06T19:48:47.657Z,11.10
2024-01-06T19:52:52.414Z,10.98
2024-01-06T19:56:54.267Z,11.10
2024-01-06T20:00:56.104Z,11.73
2024-01-06T20:04:58.387Z,8.63
2024-01-06T20:09:00.190Z,10.55
2024-01-06T20:13:02.065Z,12.35
2024-01-06T20:17:04.631Z,10.63
2024-01-06T20:21:06.323Z,10.32
2024-01-06T20:25:08.614Z,11.52
2024-01-06T20:29:10.363Z,9.75
2024-01-06T20:33:14.296Z,9.43
2024-01-06T20:37:16.112Z,10.38
2024-01-06T20:41:18.030Z,11.07
2024-01-06T20:45:20.201Z,10.57
2024-01-06T20:49:22.173Z,12.93
2024-01-06T20:53:24.109Z,13.00
2024-01-06T20:57:26.072Z,14.82
2024-01-06T21:01:27.917Z,17.23
2024-01-06T21:05:30.826Z,9.43
2024-01-06T21:09:32.612Z,13.70
2024-01-06T21:13:34.400Z,9.90
2024-01-06T21:17:36.141Z,10.02
2024-01-06T21:21:37.889Z,8.93
2024-01-06T21:25:39.641Z,9.93
2024-01-06T21:29:41.436Z,9.27
2024-01-06T21:33:45.393Z,9.38
2024-01-06T21:37:47.312Z,9.02
2024-01-06T21:41:49.589Z,8.88
2024-01-06T21:45:53.283Z,9.90
2024-01-06T21:49:56.312Z,9.95
2024-01-06T21:53:58.191Z,8.23
2024-01-06T21:58:01.641Z,7.00
2024-01-06T22:02:04.922Z,9.65
2024-01-06T22:06:07.567Z,8.73
2024-01-06T22:10:09.814Z,8.25
2024-01-06T22:14:17.241Z,7.75
2024-01-06T22:18:19.025Z,7.63
2024-01-06T22:22:21.657Z,7.57
2024-01-06T22:26:23.744Z,7.20
2024-01-06T22:30:25.577Z,6.93
2024-01-06T22:34:27.562Z,6.33
2024-01-06T22:38:35.076Z,6.87
2024-01-06T22:42:42.042Z,7.03
2024-01-06T22:46:43.779Z,7.10
2024-01-06T22:50:45.518Z,6.32
2024-01-06T22:54:47.410Z,6.97
2024-01-06T22:58:49.205Z,6.83
2024-01-06T23:02:50.961Z,7.03
2024-01-06T23:06:53.395Z,6.43
2024-01-06T23:10:57.924Z,7.15
2024-01-06T23:15:01.008Z,6.22
2024-01-06T23:19:02.847Z,5.82
2024-01-06T23:23:04.874Z,6.45
2024-01-06T23:27:06.687Z,5.90
2024-01-06T23:31:09.593Z,6.00
2024-01-06T23:39:13.187Z,5.55
2024-01-06T23:43:15.152Z,6.63
2024-01-06T23:47:16.934Z,6.63
2024-01-06T23:51:18.937Z,7.32
2024-01-06T23:55:20.760Z,7.70
2024-01-06T23:59:22.540Z,7.53
